sensor_id;sensor_type;location;lat;lon;timestamp;temperature;humidity
25302;DHT22;13243;50.888;4.724;2023-06-10T00:02:08;23.10;99.90
25302;DHT22;13243;50.888;4.724;2023-06-10T00:07:10;23.10;99.90
25302;DHT22;13243;50.888;4.724;2023-06-10T00:12:12;23.00;99.90
25302;DHT22;13243;50.888;4.724;2023-06-10T00:17:14;23.00;99.90
25302;DHT22;13243;50.888;4.724;2023-06-10T00:22:17;22.80;99.90
25302;DHT22;13243;50.888;4.724;2023-06-10T00:27:19;22.90;99.90
25302;DHT22;13243;50.888;4.724;2023-06-10T00:32:20;22.80;99.90
25302;DHT22;13243;50.888;4.724;2023-06-10T00:37:22;22.80;99.90
25302;DHT22;13243;50.888;4.724;2023-06-10T00:42:24;22.60;99.90
25302;DHT22;13243;50.888;4.724;2023-06-10T00:47:27;22.40;99.90
25302;DHT22;13243;50.888;4.724;2023-06-10T00:52:30;22.30;99.90
25302;DHT22;13243;50.888;4.724;2023-06-10T00:57:32;22.30;99.90
25302;DHT22;13243;50.888;4.724;2023-06-10T01:02:34;22.30;99.90
25302;DHT22;13243;50.888;4.724;2023-06-10T01:07:44;22.30;99.90
25302;DHT22;13243;50.888;4.724;2023-06-10T01:12:52;22.00;99.90
25302;DHT22;13243;50.888;4.724;2023-06-10T01:23:00;21.90;99.90
25302;DHT22;13243;50.888;4.724;2023-06-10T01:28:14;21.70;99.90
25302;DHT22;13243;50.888;4.724;2023-06-10T01:33:25;21.60;99.90
25302;DHT22;13243;50.888;4.724;2023-06-10T01:38:32;21.50;99.90
25302;DHT22;13243;50.888;4.724;2023-06-10T01:43:37;21.50;99.90
25302;DHT22;13243;50.888;4.724;2023-06-10T01:48:40;21.30;99.90
25302;DHT22;13243;50.888;4.724;2023-06-10T01:53:42;21.20;99.90
25302;DHT22;13243;50.888;4.724;2023-06-10T01:58:45;21.20;99.90
25302;DHT22;13243;50.888;4.724;2023-06-10T02:03:47;21.10;99.90
25302;DHT22;13243;50.888;4.724;2023-06-10T02:08:49;21.00;99.90
25302;DHT22;13243;50.888;4.724;2023-06-10T02:13:50;20.90;99.90
25302;DHT22;13243;50.888;4.724;2023-06-10T02:18:52;21.10;99.90
25302;DHT22;13243;50.888;4.724;2023-06-10T02:23:54;20.90;99.90
25302;DHT22;13243;50.888;4.724;2023-06-10T02:28:56;20.80;99.90
25302;DHT22;13243;50.888;4.724;2023-06-10T02:33:58;20.70;99.90
25302;DHT22;13243;50.888;4.724;2023-06-10T02:39:01;20.60;99.90
25302;DHT22;13243;50.888;4.724;2023-06-10T02:44:03;20.40;99.90
25302;DHT22;13243;50.888;4.724;2023-06-10T02:49:05;20.50;99.90
25302;DHT22;13243;50.888;4.724;2023-06-10T02:54:06;20.50;99.90
25302;DHT22;13243;50.888;4.724;2023-06-10T02:59:08;20.50;99.90
25302;DHT22;13243;50.888;4.724;2023-06-10T03:04:10;20.50;99.90
25302;DHT22;13243;50.888;4.724;2023-06-10T03:09:15;20.50;99.90
25302;DHT22;13243;50.888;4.724;2023-06-10T03:14:17;20.50;99.90
25302;DHT22;13243;50.888;4.724;2023-06-10T03:19:19;20.50;99.90
25302;DHT22;13243;50.888;4.724;2023-06-10T03:24:22;20.30;99.90
25302;DHT22;13243;50.888;4.724;2023-06-10T03:29:24;20.20;99.90
25302;DHT22;13243;50.888;4.724;2023-06-10T03:34:27;20.20;99.90
25302;DHT22;13243;50.888;4.724;2023-06-10T03:39:29;20.10;99.90
25302;DHT22;13243;50.888;4.724;2023-06-10T03:44:30;20.00;99.90
25302;DHT22;13243;50.888;4.724;2023-06-10T03:49:33;20.00;99.90
25302;DHT22;13243;50.888;4.724;2023-06-10T03:54:35;19.90;99.90
25302;DHT22;13243;50.888;4.724;2023-06-10T03:59:37;20.00;99.90
25302;DHT22;13243;50.888;4.724;2023-06-10T04:04:39;20.00;99.90
25302;DHT22;13243;50.888;4.724;2023-06-10T04:09:41;19.90;99.90
25302;DHT22;13243;50.888;4.724;2023-06-10T04:14:42;19.90;99.90
25302;DHT22;13243;50.888;4.724;2023-06-10T04:19:45;19.90;99.90
25302;DHT22;13243;50.888;4.724;2023-06-10T04:24:47;19.90;99.90
25302;DHT22;13243;50.888;4.724;2023-06-10T04:29:49;20.00;99.90
25302;DHT22;13243;50.888;4.724;2023-06-10T04:34:50;19.90;99.90
25302;DHT22;13243;50.888;4.724;2023-06-10T04:39:52;20.00;99.90
25302;DHT22;13243;50.888;4.724;2023-06-10T04:44:54;20.00;99.90
25302;DHT22;13243;50.888;4.724;2023-06-10T04:49:57;20.10;99.90
25302;DHT22;13243;50.888;4.724;2023-06-10T04:55:00;20.10;99.90
25302;DHT22;13243;50.888;4.724;2023-06-10T05:00:03;20.30;99.90
25302;DHT22;13243;50.888;4.724;2023-06-10T05:05:07;20.30;99.90
25302;DHT22;13243;50.888;4.724;2023-06-10T05:10:10;20.40;99.90
25302;DHT22;13243;50.888;4.724;2023-06-10T05:15:13;20.50;99.90
25302;DHT22;13243;50.888;4.724;2023-06-10T05:20:15;20.50;99.90
25302;DHT22;13243;50.888;4.724;2023-06-10T05:25:17;20.70;99.90
25302;DHT22;13243;50.888;4.724;2023-06-10T05:30:20;20.80;99.90
25302;DHT22;13243;50.888;4.724;2023-06-10T05:35:22;20.90;99.90
25302;DHT22;13243;50.888;4.724;2023-06-10T05:40:24;21.00;99.90
25302;DHT22;13243;50.888;4.724;2023-06-10T05:45:27;21.00;99.90
25302;DHT22;13243;50.888;4.724;2023-06-10T05:50:29;21.10;99.90
25302;DHT22;13243;50.888;4.724;2023-06-10T05:55:31;21.30;99.90
25302;DHT22;13243;50.888;4.724;2023-06-10T06:00:33;21.30;99.90
25302;DHT22;13243;50.888;4.724;2023-06-10T06:05:38;21.40;99.90
25302;DHT22;13243;50.888;4.724;2023-06-10T06:10:40;21.70;99.90
25302;DHT22;13243;50.888;4.724;2023-06-10T06:15:42;21.80;99.90
25302;DHT22;13243;50.888;4.724;2023-06-10T06:20:44;22.00;99.90
25302;DHT22;13243;50.888;4.724;2023-06-10T06:25:46;22.00;99.90
25302;DHT22;13243;50.888;4.724;2023-06-10T06:30:48;22.10;99.90
25302;DHT22;13243;50.888;4.724;2023-06-10T06:35:49;22.40;99.90
25302;DHT22;13243;50.888;4.724;2023-06-10T06:40:51;22.50;99.90
25302;DHT22;13243;50.888;4.724;2023-06-10T06:45:53;22.60;99.90
25302;DHT22;13243;50.888;4.724;2023-06-10T06:50:55;22.90;99.90
25302;DHT22;13243;50.888;4.724;2023-06-10T06:55:58;23.00;99.90
25302;DHT22;13243;50.888;4.724;2023-06-10T07:01:00;23.20;99.90
25302;DHT22;13243;50.888;4.724;2023-06-10T07:06:02;23.40;99.90
25302;DHT22;13243;50.888;4.724;2023-06-10T07:11:04;23.50;99.90
25302;DHT22;13243;50.888;4.724;2023-06-10T07:16:06;23.80;99.90
25302;DHT22;13243;50.888;4.724;2023-06-10T07:21:08;24.00;99.90
25302;DHT22;13243;50.888;4.724;2023-06-10T07:26:10;24.10;99.90
25302;DHT22;13243;50.888;4.724;2023-06-10T07:31:12;24.30;99.90
25302;DHT22;13243;50.888;4.724;2023-06-10T07:36:14;24.40;99.90
25302;DHT22;13243;50.888;4.724;2023-06-10T07:41:16;24.60;99.90
25302;DHT22;13243;50.888;4.724;2023-06-10T07:46:22;24.70;99.90
25302;DHT22;13243;50.888;4.724;2023-06-10T07:51:25;24.80;99.90
25302;DHT22;13243;50.888;4.724;2023-06-10T07:56:27;25.00;99.90
25302;DHT22;13243;50.888;4.724;2023-06-10T08:01:28;25.20;99.90
25302;DHT22;13243;50.888;4.724;2023-06-10T08:06:31;25.50;99.90
25302;DHT22;13243;50.888;4.724;2023-06-10T08:11:34;25.60;99.90
25302;DHT22;13243;50.888;4.724;2023-06-10T08:16:36;25.70;99.90
25302;DHT22;13243;50.888;4.724;2023-06-10T08:21:38;25.90;99.90
25302;DHT22;13243;50.888;4.724;2023-06-10T08:26:41;26.10;99.90
25302;DHT22;13243;50.888;4.724;2023-06-10T08:31:43;26.30;99.90
25302;DHT22;13243;50.888;4.724;2023-06-10T08:36:45;26.50;99.90
25302;DHT22;13243;50.888;4.724;2023-06-10T08:42:02;26.80;99.90
25302;DHT22;13243;50.888;4.724;2023-06-10T08:47:16;26.80;99.90
25302;DHT22;13243;50.888;4.724;2023-06-10T08:52:20;26.90;99.90
25302;DHT22;13243;50.888;4.724;2023-06-10T08:57:22;27.00;99.90
25302;DHT22;13243;50.888;4.724;2023-06-10T09:02:25;27.30;99.90
25302;DHT22;13243;50.888;4.724;2023-06-10T09:07:26;27.40;99.90
25302;DHT22;13243;50.888;4.724;2023-06-10T09:12:29;27.60;99.90
25302;DHT22;13243;50.888;4.724;2023-06-10T09:17:31;27.80;99.90
25302;DHT22;13243;50.888;4.724;2023-06-10T09:22:34;28.00;99.90
25302;DHT22;13243;50.888;4.724;2023-06-10T09:27:47;28.20;99.90
25302;DHT22;13243;50.888;4.724;2023-06-10T09:32:56;28.20;99.90
25302;DHT22;13243;50.888;4.724;2023-06-10T09:38:00;28.30;99.90
25302;DHT22;13243;50.888;4.724;2023-06-10T09:43:02;28.30;99.90
25302;DHT22;13243;50.888;4.724;2023-06-10T09:48:04;28.40;99.90
25302;DHT22;13243;50.888;4.724;2023-06-10T09:53:06;28.70;99.90
25302;DHT22;13243;50.888;4.724;2023-06-10T09:58:08;28.80;99.90
25302;DHT22;13243;50.888;4.724;2023-06-10T10:03:22;29.20;99.90
25302;DHT22;13243;50.888;4.724;2023-06-10T10:08:24;29.10;99.90
25302;DHT22;13243;50.888;4.724;2023-06-10T10:13:28;29.20;99.90
25302;DHT22;13243;50.888;4.724;2023-06-10T10:18:31;29.50;99.90
25302;DHT22;13243;50.888;4.724;2023-06-10T10:23:53;29.50;99.90
25302;DHT22;13243;50.888;4.724;2023-06-10T10:29:11;29.60;99.90
25302;DHT22;13243;50.888;4.724;2023-06-10T10:34:19;29.70;99.90
25302;DHT22;13243;50.888;4.724;2023-06-10T10:39:23;30.00;99.90
25302;DHT22;13243;50.888;4.724;2023-06-10T10:44:26;30.00;99.90
25302;DHT22;13243;50.888;4.724;2023-06-10T10:49:30;29.90;99.90
25302;DHT22;13243;50.888;4.724;2023-06-10T10:54:39;30.30;99.90
25302;DHT22;13243;50.888;4.724;2023-06-10T10:59:59;30.60;99.90
25302;DHT22;13243;50.888;4.724;2023-06-10T11:05:02;30.40;99.90
25302;DHT22;13243;50.888;4.724;2023-06-10T11:10:12;30.70;99.90
25302;DHT22;13243;50.888;4.724;2023-06-10T11:15:22;30.90;99.80
25302;DHT22;13243;50.888;4.724;2023-06-10T11:25:51;31.20;99.90
25302;DHT22;13243;50.888;4.724;2023-06-10T11:31:19;31.20;99.10
25302;DHT22;13243;50.888;4.724;2023-06-10T11:36:26;31.30;99.90
25302;DHT22;13243;50.888;4.724;2023-06-10T11:41:29;31.40;99.00
25302;DHT22;13243;50.888;4.724;2023-06-10T11:46:34;31.60;98.40
25302;DHT22;13243;50.888;4.724;2023-06-10T11:51:38;31.50;98.20
25302;DHT22;13243;50.888;4.724;2023-06-10T11:56:41;31.80;98.30
25302;DHT22;13243;50.888;4.724;2023-06-10T12:01:44;31.70;98.00
25302;DHT22;13243;50.888;4.724;2023-06-10T12:06:52;31.90;97.90
25302;DHT22;13243;50.888;4.724;2023-06-10T12:11:59;32.30;97.10
25302;DHT22;13243;50.888;4.724;2023-06-10T12:17:02;32.50;97.30
25302;DHT22;13243;50.888;4.724;2023-06-10T12:22:04;32.80;97.00
25302;DHT22;13243;50.888;4.724;2023-06-10T12:27:11;32.70;96.40
25302;DHT22;13243;50.888;4.724;2023-06-10T12:32:13;32.70;95.80
25302;DHT22;13243;50.888;4.724;2023-06-10T12:37:16;32.70;95.30
25302;DHT22;13243;50.888;4.724;2023-06-10T12:42:22;32.90;95.30
25302;DHT22;13243;50.888;4.724;2023-06-10T12:47:30;33.20;96.00
25302;DHT22;13243;50.888;4.724;2023-06-10T12:52:33;33.30;96.50
25302;DHT22;13243;50.888;4.724;2023-06-10T12:57:36;33.50;96.20
25302;DHT22;13243;50.888;4.724;2023-06-10T13:02:38;33.60;95.20
25302;DHT22;13243;50.888;4.724;2023-06-10T13:07:40;33.60;95.60
25302;DHT22;13243;50.888;4.724;2023-06-10T13:12:44;33.70;94.80
25302;DHT22;13243;50.888;4.724;2023-06-10T13:17:49;34.00;95.60
25302;DHT22;13243;50.888;4.724;2023-06-10T13:22:52;34.20;94.80
25302;DHT22;13243;50.888;4.724;2023-06-10T13:27:54;34.50;94.60
25302;DHT22;13243;50.888;4.724;2023-06-10T13:32:57;34.50;94.50
25302;DHT22;13243;50.888;4.724;2023-06-10T13:37:59;34.60;95.50
25302;DHT22;13243;50.888;4.724;2023-06-10T13:43:01;34.70;94.90
25302;DHT22;13243;50.888;4.724;2023-06-10T13:48:04;34.50;93.50
25302;DHT22;13243;50.888;4.724;2023-06-10T13:53:07;34.70;93.90
25302;DHT22;13243;50.888;4.724;2023-06-10T13:58:09;34.80;94.60
25302;DHT22;13243;50.888;4.724;2023-06-10T14:03:11;35.50;95.10
25302;DHT22;13243;50.888;4.724;2023-06-10T14:08:14;35.20;93.30
25302;DHT22;13243;50.888;4.724;2023-06-10T14:13:16;35.30;93.10
25302;DHT22;13243;50.888;4.724;2023-06-10T14:18:18;35.60;93.60
25302;DHT22;13243;50.888;4.724;2023-06-10T14:23:20;36.20;94.10
25302;DHT22;13243;50.888;4.724;2023-06-10T14:28:22;35.80;93.70
25302;DHT22;13243;50.888;4.724;2023-06-10T14:33:25;35.90;93.00
25302;DHT22;13243;50.888;4.724;2023-06-10T14:38:27;35.90;92.50
25302;DHT22;13243;50.888;4.724;2023-06-10T14:43:29;35.90;92.40
25302;DHT22;13243;50.888;4.724;2023-06-10T14:48:31;35.80;92.60
25302;DHT22;13243;50.888;4.724;2023-06-10T14:53:33;35.80;93.50
25302;DHT22;13243;50.888;4.724;2023-06-10T14:58:35;35.80;94.40
25302;DHT22;13243;50.888;4.724;2023-06-10T15:03:37;35.90;96.70
25302;DHT22;13243;50.888;4.724;2023-06-10T15:08:39;36.10;93.80
25302;DHT22;13243;50.888;4.724;2023-06-10T15:13:41;36.40;93.80
25302;DHT22;13243;50.888;4.724;2023-06-10T15:18:43;36.70;94.50
25302;DHT22;13243;50.888;4.724;2023-06-10T15:23:45;36.40;93.00
25302;DHT22;13243;50.888;4.724;2023-06-10T15:28:47;36.10;92.50
25302;DHT22;13243;50.888;4.724;2023-06-10T15:33:49;36.40;92.60
25302;DHT22;13243;50.888;4.724;2023-06-10T15:38:51;36.60;91.90
25302;DHT22;13243;50.888;4.724;2023-06-10T15:43:57;36.40;91.90
25302;DHT22;13243;50.888;4.724;2023-06-10T15:49:01;36.60;92.10
25302;DHT22;13243;50.888;4.724;2023-06-10T15:54:04;36.70;91.30
25302;DHT22;13243;50.888;4.724;2023-06-10T15:59:06;37.20;91.90
25302;DHT22;13243;50.888;4.724;2023-06-10T16:04:08;36.80;91.00
25302;DHT22;13243;50.888;4.724;2023-06-10T16:09:10;36.80;91.00
25302;DHT22;13243;50.888;4.724;2023-06-10T16:14:12;37.00;91.50
25302;DHT22;13243;50.888;4.724;2023-06-10T16:19:14;36.80;90.90
25302;DHT22;13243;50.888;4.724;2023-06-10T16:24:17;36.90;91.20
25302;DHT22;13243;50.888;4.724;2023-06-10T16:29:19;36.90;90.50
25302;DHT22;13243;50.888;4.724;2023-06-10T16:34:21;36.80;91.40
25302;DHT22;13243;50.888;4.724;2023-06-10T16:39:23;36.90;90.30
25302;DHT22;13243;50.888;4.724;2023-06-10T16:44:25;37.10;91.20
25302;DHT22;13243;50.888;4.724;2023-06-10T16:49:27;36.60;91.40
25302;DHT22;13243;50.888;4.724;2023-06-10T16:54:28;36.70;90.70
25302;DHT22;13243;50.888;4.724;2023-06-10T16:59:31;36.50;90.70
25302;DHT22;13243;50.888;4.724;2023-06-10T17:04:32;36.60;90.90
25302;DHT22;13243;50.888;4.724;2023-06-10T17:09:34;36.30;90.80
25302;DHT22;13243;50.888;4.724;2023-06-10T17:14:36;35.90;90.30
25302;DHT22;13243;50.888;4.724;2023-06-10T17:19:39;36.00;90.60
25302;DHT22;13243;50.888;4.724;2023-06-10T17:24:41;36.10;91.30
25302;DHT22;13243;50.888;4.724;2023-06-10T17:29:43;35.90;91.00
25302;DHT22;13243;50.888;4.724;2023-06-10T17:34:45;35.70;91.30
25302;DHT22;13243;50.888;4.724;2023-06-10T17:39:47;35.40;91.70
25302;DHT22;13243;50.888;4.724;2023-06-10T17:44:49;34.90;91.90
25302;DHT22;13243;50.888;4.724;2023-06-10T17:49:51;34.80;91.30
25302;DHT22;13243;50.888;4.724;2023-06-10T17:54:53;34.40;91.50
25302;DHT22;13243;50.888;4.724;2023-06-10T17:59:55;34.10;92.30
25302;DHT22;13243;50.888;4.724;2023-06-10T18:04:57;33.90;92.50
25302;DHT22;13243;50.888;4.724;2023-06-10T18:09:58;33.60;92.40
25302;DHT22;13243;50.888;4.724;2023-06-10T18:15:01;33.10;92.70
25302;DHT22;13243;50.888;4.724;2023-06-10T18:20:03;32.60;92.90
25302;DHT22;13243;50.888;4.724;2023-06-10T18:25:06;32.40;92.90
25302;DHT22;13243;50.888;4.724;2023-06-10T18:30:08;32.10;93.30
25302;DHT22;13243;50.888;4.724;2023-06-10T18:35:10;31.80;93.90
25302;DHT22;13243;50.888;4.724;2023-06-10T18:40:13;31.70;95.00
25302;DHT22;13243;50.888;4.724;2023-06-10T18:45:15;31.40;95.40
25302;DHT22;13243;50.888;4.724;2023-06-10T18:50:17;31.10;95.40
25302;DHT22;13243;50.888;4.724;2023-06-10T18:55:19;31.00;95.10
25302;DHT22;13243;50.888;4.724;2023-06-10T19:00:21;30.80;95.00
25302;DHT22;13243;50.888;4.724;2023-06-10T19:05:23;30.70;94.90
25302;DHT22;13243;50.888;4.724;2023-06-10T19:10:25;30.50;95.40
25302;DHT22;13243;50.888;4.724;2023-06-10T19:15:27;30.30;96.40
25302;DHT22;13243;50.888;4.724;2023-06-10T19:20:29;29.90;96.10
25302;DHT22;13243;50.888;4.724;2023-06-10T19:25:31;29.80;96.10
25302;DHT22;13243;50.888;4.724;2023-06-10T19:30:33;29.60;96.40
25302;DHT22;13243;50.888;4.724;2023-06-10T19:35:35;29.40;96.60
25302;DHT22;13243;50.888;4.724;2023-06-10T19:40:37;29.30;96.90
25302;DHT22;13243;50.888;4.724;2023-06-10T19:45:38;29.10;96.80
25302;DHT22;13243;50.888;4.724;2023-06-10T19:50:40;29.00;96.80
25302;DHT22;13243;50.888;4.724;2023-06-10T19:55:42;28.70;97.10
25302;DHT22;13243;50.888;4.724;2023-06-10T20:00:44;28.60;97.70
25302;DHT22;13243;50.888;4.724;2023-06-10T20:05:46;28.40;99.90
25302;DHT22;13243;50.888;4.724;2023-06-10T20:10:48;28.00;99.90
25302;DHT22;13243;50.888;4.724;2023-06-10T20:15:50;27.80;99.90
25302;DHT22;13243;50.888;4.724;2023-06-10T20:20:52;27.60;99.90
25302;DHT22;13243;50.888;4.724;2023-06-10T20:25:54;27.40;99.90
25302;DHT22;13243;50.888;4.724;2023-06-10T20:30:55;27.20;99.90
25302;DHT22;13243;50.888;4.724;2023-06-10T20:35:57;27.00;99.90
25302;DHT22;13243;50.888;4.724;2023-06-10T20:40:59;26.90;99.90
25302;DHT22;13243;50.888;4.724;2023-06-10T20:46:01;26.70;99.90
25302;DHT22;13243;50.888;4.724;2023-06-10T20:51:03;26.60;99.90
25302;DHT22;13243;50.888;4.724;2023-06-10T20:56:05;26.40;99.90
25302;DHT22;13243;50.888;4.724;2023-06-10T21:01:07;26.40;99.90
25302;DHT22;13243;50.888;4.724;2023-06-10T21:06:12;26.20;99.90
25302;DHT22;13243;50.888;4.724;2023-06-10T21:11:14;26.20;99.90
25302;DHT22;13243;50.888;4.724;2023-06-10T21:16:16;26.10;99.90
25302;DHT22;13243;50.888;4.724;2023-06-10T21:21:17;26.00;99.90
25302;DHT22;13243;50.888;4.724;2023-06-10T21:26:20;25.90;99.90
25302;DHT22;13243;50.888;4.724;2023-06-10T21:31:21;25.90;99.90
25302;DHT22;13243;50.888;4.724;2023-06-10T21:36:25;25.80;99.90
25302;DHT22;13243;50.888;4.724;2023-06-10T21:41:27;25.70;99.90
25302;DHT22;13243;50.888;4.724;2023-06-10T21:46:31;25.70;99.90
25302;DHT22;13243;50.888;4.724;2023-06-10T21:51:34;25.70;99.90
25302;DHT22;13243;50.888;4.724;2023-06-10T21:56:36;25.50;99.90
25302;DHT22;13243;50.888;4.724;2023-06-10T22:01:38;25.40;99.90
25302;DHT22;13243;50.888;4.724;2023-06-10T22:06:40;25.20;99.90
25302;DHT22;13243;50.888;4.724;2023-06-10T22:11:42;25.10;99.90
25302;DHT22;13243;50.888;4.724;2023-06-10T22:16:44;24.90;99.90
25302;DHT22;13243;50.888;4.724;2023-06-10T22:21:46;24.90;99.90
25302;DHT22;13243;50.888;4.724;2023-06-10T22:26:48;24.80;99.90
25302;DHT22;13243;50.888;4.724;2023-06-10T22:31:55;24.70;99.90
25302;DHT22;13243;50.888;4.724;2023-06-10T22:36:57;24.60;99.90
25302;DHT22;13243;50.888;4.724;2023-06-10T22:41:59;24.40;99.90
25302;DHT22;13243;50.888;4.724;2023-06-10T22:47:01;24.40;99.90
25302;DHT22;13243;50.888;4.724;2023-06-10T22:52:03;24.30;99.90
25302;DHT22;13243;50.888;4.724;2023-06-10T22:57:05;24.30;99.90
25302;DHT22;13243;50.888;4.724;2023-06-10T23:02:07;24.20;99.90
25302;DHT22;13243;50.888;4.724;2023-06-10T23:07:10;24.10;99.90
25302;DHT22;13243;50.888;4.724;2023-06-10T23:12:15;24.00;99.90
25302;DHT22;13243;50.888;4.724;2023-06-10T23:17:17;24.00;99.90
25302;DHT22;13243;50.888;4.724;2023-06-10T23:22:19;23.90;99.90
25302;DHT22;13243;50.888;4.724;2023-06-10T23:27:21;23.80;99.90
25302;DHT22;13243;50.888;4.724;2023-06-10T23:32:23;23.70;99.90
25302;DHT22;13243;50.888;4.724;2023-06-10T23:37:25;23.70;99.90
25302;DHT22;13243;50.888;4.724;2023-06-10T23:42:29;23.50;99.90
25302;DHT22;13243;50.888;4.724;2023-06-10T23:47:31;23.50;99.90
25302;DHT22;13243;50.888;4.724;2023-06-10T23:52:33;23.40;99.90
25302;DHT22;13243;50.888;4.724;2023-06-10T23:57:35;23.30;99.90
